Погода Новое Максимковона неделю

Смоленская область, Россия

23 - 29 мая
  • 23мая
    Сегодня
    +8°
    +24°
    Ясно и безоблачно
    ВремяПогодаТемператураВлажностьДавлениеВетер, м/сВероятность осадков
    00:00Ясно и безоблачно+14°C94 %747 мм1.7 м/с2 %
    03:00Ясно и безоблачно+13°C95 %747 мм1.6 м/с2 %
    06:00Ясно и безоблачно+12°C84 %748 мм2.2 м/с2 %
    09:00Ясно и безоблачно+18°C64 %749 мм3.1 м/с2 %
    12:00Ясно и безоблачно+22°C50 %750 мм4.1 м/с2 %
    15:00Ясно и безоблачно+23°C41 %750 мм4.1 м/с2 %
    18:00Ясно и безоблачно+20°C41 %750 мм3.9 м/с2 %
    21:00Ясно и безоблачно+16°C51 %751 мм2.7 м/с2 %
  • 24мая
    Пятница
    +7°
    +20°
    Небольшая облачность
    ВремяПогодаТемператураВлажностьДавлениеВетер, м/сВероятность осадков
    00:00Ясно и безоблачно+12°C54 %752 мм2.3 м/с2 %
    03:00Ясно и безоблачно+10°C54 %753 мм1.8 м/с2 %
    06:00Ясно и безоблачно+9°C57 %754 мм2.1 м/с2 %
    09:00Ясно и безоблачно+14°C48 %755 мм3.0 м/с2 %
    12:00Ясно и безоблачно+18°C38 %755 мм3.4 м/с2 %
    15:00Небольшая облачность+20°C34 %754 мм3.3 м/с2 %
    18:00Ясно и безоблачно+19°C38 %754 мм3.1 м/с2 %
    21:00Ясно и безоблачно+14°C55 %753 мм1.7 м/с2 %
  • 25мая
    Суббота
    +8°
    +23°
    Ясно и безоблачно
    ВремяПогодаТемператураВлажностьДавлениеВетер, м/сВероятность осадков
    00:00Ясно и безоблачно+10°C63 %754 мм1.5 м/с2 %
    03:00Ясно и безоблачно+8°C65 %754 мм1.2 м/с2 %
    06:00Ясно и безоблачно+8°C65 %753 мм1.5 м/с2 %
    09:00Ясно и безоблачно+16°C51 %754 мм2.2 м/с2 %
    12:00Ясно и безоблачно+21°C35 %754 мм2.6 м/с2 %
    15:00Ясно и безоблачно+22°C34 %753 мм2.5 м/с2 %
    18:00Практически безоблачно+21°C37 %752 мм2.3 м/с2 %
    21:00Ясно и безоблачно+15°C60 %751 мм1.0 м/с2 %
  • 26мая
    Воскресенье
    +12°
    +25°
    Ясно и безоблачно
    ВремяПогодаТемператураВлажностьДавлениеВетер, м/сВероятность осадков
    00:00Небольшая облачность+12°C79 %751 мм0.7 м/с2 %
    03:00Облачно с прояснениями+10°C82 %751 мм0.5 м/с2 %
    06:00Облачно с прояснениями+11°C79 %751 мм0.7 м/с2 %
    09:00Облачно с прояснениями+18°C52 %751 мм1.2 м/с2 %
    12:00Практически безоблачно+23°C38 %751 мм1.9 м/с2 %
    15:00Ясно и безоблачно+24°C38 %750 мм2.5 м/с2 %
    18:00Ясно и безоблачно+23°C38 %749 мм3.0 м/с2 %
    21:00Ясно и безоблачно+19°C49 %749 мм0.6 м/с2 %
  • 27мая
    Понедельник
    +12°
    +25°
    Практически безоблачно
    ВремяПогодаТемператураВлажностьДавлениеВетер, м/сВероятность осадков
    00:00Ясно и безоблачно+15°C80 %749 мм1.0 м/с2 %
    03:00Ясно и безоблачно+13°C85 %749 мм0.6 м/с2 %
    06:00Практически безоблачно+13°C87 %750 мм1.2 м/с2 %
    09:00Ясно и безоблачно+20°C70 %751 мм1.9 м/с2 %
    12:00Практически безоблачно+24°C58 %751 мм2.5 м/с18 %
    15:00Практически безоблачно+25°C54 %751 мм2.5 м/с36 %
    18:00Ясно и безоблачно+23°C53 %751 мм2.8 м/с32 %
    21:00Ясно и безоблачно+19°C54 %751 мм1.8 м/с3 %
Мы используем cookies
Соглашаюсь